createdAt,value
2019-02-20T00:00:47.260Z,63.86
2019-02-20T00:01:47.031Z,63.96
2019-02-20T00:02:47.355Z,63.96
2019-02-20T00:03:47.080Z,64.05
2019-02-20T00:04:47.085Z,64.34
2019-02-20T00:05:47.362Z,64.05
2019-02-20T00:06:47.126Z,64.15
2019-02-20T00:07:47.405Z,64.15
2019-02-20T00:08:47.166Z,64.15
2019-02-20T00:09:47.456Z,63.96
2019-02-20T00:10:47.209Z,63.96
2019-02-20T00:11:47.229Z,63.86
2019-02-20T00:12:47.249Z,63.86
2019-02-20T00:13:47.273Z,63.86
2019-02-20T00:14:47.549Z,64.25
2019-02-20T00:15:47.316Z,64.43
2019-02-20T00:16:47.590Z,64.43
2019-02-20T00:17:47.353Z,64.43
2019-02-20T00:18:47.632Z,64.25
2019-02-20T00:19:47.395Z,64.34
2019-02-20T00:20:47.417Z,64.72
2019-02-20T00:21:47.435Z,64.72
2019-02-20T00:22:47.456Z,64.72
2019-02-20T00:23:47.739Z,64.43
2019-02-20T00:24:47.500Z,64.72
2019-02-20T00:25:47.520Z,64.62
2019-02-20T00:26:47.539Z,64.72
2019-02-20T00:27:47.568Z,64.62
2019-02-20T00:28:47.581Z,64.53
2019-02-20T00:29:47.601Z,64.62
2019-02-20T00:30:47.622Z,64.53
2019-02-20T00:31:47.648Z,64.69
2019-02-20T00:32:47.857Z,64.69
2019-02-20T00:33:47.946Z,64.69
2019-02-20T00:34:47.973Z,64.5
2019-02-20T00:35:47.738Z,64.4
2019-02-20T00:36:48.001Z,64.5
2019-02-20T00:37:47.767Z,64.34
2019-02-20T00:38:47.785Z,64.5
2019-02-20T00:39:48.071Z,64.5
2019-02-20T00:40:48.088Z,64.69
2019-02-20T00:41:48.103Z,64.78
2019-02-20T00:42:47.866Z,64.59
2019-02-20T00:43:48.144Z,64.78
2019-02-20T00:44:48.169Z,64.59
2019-02-20T00:45:47.926Z,65.36
2019-02-20T00:46:48.231Z,64.97
2019-02-20T00:47:47.967Z,65.07
2019-02-20T00:48:48.248Z,64.88
2019-02-20T00:49:48.273Z,64.78
2019-02-20T00:50:48.028Z,65.07
2019-02-20T00:51:48.049Z,64.88
2019-02-20T00:52:52.501Z,65.17
2019-02-20T00:53:48.386Z,64.88
2019-02-20T00:54:48.369Z,65.26
2019-02-20T00:55:48.133Z,65.26
2019-02-20T00:56:48.435Z,65.07
2019-02-20T00:57:48.178Z,65.36
2019-02-20T00:58:48.449Z,65.26
2019-02-20T00:59:48.483Z,65.26
2019-02-20T01:00:48.233Z,65.36
2019-02-20T01:01:48.257Z,65.07
2019-02-20T01:02:48.273Z,65.07
2019-02-20T01:03:48.553Z,64.97
2019-02-20T01:04:48.617Z,65.17
2019-02-20T01:05:48.601Z,65.07
2019-02-20T01:06:48.632Z,65.55
2019-02-20T01:07:48.374Z,65.17
2019-02-20T01:08:48.401Z,65.26
2019-02-20T01:09:48.418Z,65.26
2019-02-20T01:10:48.697Z,65.17
2019-02-20T01:11:48.716Z,65.55
2019-02-20T01:12:48.741Z,65.26
2019-02-20T01:13:48.761Z,65.55
2019-02-20T01:14:48.519Z,65.17
2019-02-20T01:15:48.537Z,65.36
2019-02-20T01:16:48.558Z,65.26
2019-02-20T01:17:48.587Z,65.36
2019-02-20T01:18:48.857Z,65.36
2019-02-20T01:19:48.879Z,65.36
2019-02-20T01:20:48.911Z,65.13
2019-02-20T01:21:48.662Z,65.26
2019-02-20T01:22:48.950Z,65.36
2019-02-20T01:23:48.763Z,65.45
2019-02-20T01:24:48.978Z,65.52
2019-02-20T01:25:48.741Z,65.52
2019-02-20T01:26:49.023Z,65.42
2019-02-20T01:27:48.784Z,65.45
2019-02-20T01:28:49.060Z,65.7
2019-02-20T01:29:48.825Z,65.7
2019-02-20T01:30:48.843Z,65.52
2019-02-20T01:31:49.131Z,65.7
2019-02-20T01:32:48.886Z,65.61
2019-02-20T01:33:48.906Z,65.52
2019-02-20T01:34:48.939Z,65.7
2019-02-20T01:35:48.946Z,65.7
2019-02-20T01:36:48.966Z,65.61
2019-02-20T01:37:48.983Z,65.42
2019-02-20T01:38:49.276Z,65.99
2019-02-20T01:39:49.576Z,65.89
2019-02-20T01:40:49.309Z,65.99
2019-02-20T01:41:49.323Z,65.7
2019-02-20T01:42:49.348Z,65.89
2019-02-20T01:43:49.108Z,65.99
2019-02-20T01:44:49.383Z,65.8
2019-02-20T01:45:49.404Z,65.61
2019-02-20T01:46:49.433Z,66.09
2019-02-20T01:47:49.454Z,65.7
2019-02-20T01:48:49.466Z,65.7
2019-02-20T01:49:49.485Z,65.8
2019-02-20T01:50:49.507Z,65.89
2019-02-20T01:51:49.527Z,65.61
2019-02-20T01:52:49.547Z,65.89
2019-02-20T01:53:49.565Z,65.42
2019-02-20T01:54:49.586Z,65.7
2019-02-20T01:55:49.606Z,65.7
2019-02-20T01:56:49.372Z,65.61
2019-02-20T01:57:49.390Z,65.61
2019-02-20T01:58:49.407Z,65.8
2019-02-20T01:59:49.427Z,65.8
2019-02-20T02:00:49.706Z,65.61
2019-02-20T02:01:49.474Z,65.8
2019-02-20T02:02:49.751Z,65.7
2019-02-20T02:03:49.516Z,65.52
2019-02-20T02:04:49.542Z,65.7
2019-02-20T02:05:49.816Z,65.42
2019-02-20T02:06:49.570Z,65.61
2019-02-20T02:07:49.590Z,65.8
2019-02-20T02:08:49.873Z,65.52
2019-02-20T02:09:49.889Z,65.8
2019-02-20T02:10:49.904Z,65.42
2019-02-20T02:11:49.670Z,65.7
2019-02-20T02:12:49.947Z,65.52
2019-02-20T02:13:49.984Z,65.8
2019-02-20T02:14:49.729Z,65.8
2019-02-20T02:15:50.006Z,65.8
2019-02-20T02:16:49.768Z,65.61
2019-02-20T02:17:49.797Z,65.7
2019-02-20T02:18:50.079Z,65.61
2019-02-20T02:19:49.831Z,65.61
2019-02-20T02:20:50.124Z,65.99
2019-02-20T02:21:49.924Z,66.28
2019-02-20T02:22:49.888Z,66.09
2019-02-20T02:23:50.210Z,65.8
2019-02-20T02:24:49.926Z,66.09
2019-02-20T02:25:50.214Z,66.34
2019-02-20T02:26:50.224Z,65.99
2019-02-20T02:27:49.986Z,66.38
2019-02-20T02:28:50.006Z,66.24
2019-02-20T02:29:50.026Z,66.24
2019-02-20T02:30:50.307Z,66.24
2019-02-20T02:31:50.072Z,66.05
2019-02-20T02:32:50.344Z,65.77
2019-02-20T02:33:50.372Z,65.67
2019-02-20T02:34:50.135Z,66.34
2019-02-20T02:35:50.445Z,66.53
2019-02-20T02:36:50.427Z,66.34
2019-02-20T02:37:50.449Z,65.96
2019-02-20T02:38:50.215Z,66.34
2019-02-20T02:39:50.487Z,66.24
2019-02-20T02:40:50.501Z,66.24
2019-02-20T02:41:50.264Z,66.15
2019-02-20T02:42:50.287Z,66.34
2019-02-20T02:43:50.571Z,66.34
2019-02-20T02:44:50.580Z,66.24
2019-02-20T02:45:50.346Z,66.15
2019-02-20T02:46:50.624Z,66.24
2019-02-20T02:47:50.414Z,66.05
2019-02-20T02:48:50.669Z,66.15
2019-02-20T02:49:50.420Z,66.44
2019-02-20T02:50:50.445Z,66.15
2019-02-20T02:51:50.460Z,66.34
2019-02-20T02:52:50.739Z,65.96
2019-02-20T02:53:50.761Z,66.53
2019-02-20T02:54:50.535Z,66.34
2019-02-20T02:55:50.544Z,66.05
2019-02-20T02:56:50.816Z,66.72
2019-02-20T02:57:50.579Z,66.63
2019-02-20T02:58:50.868Z,66.15
2019-02-20T02:59:50.619Z,66.53
2019-02-20T03:00:50.904Z,66.24
2019-02-20T03:01:50.913Z,66.24
2019-02-20T03:02:51.024Z,66.53
2019-02-20T03:03:50.956Z,66.72
2019-02-20T03:04:50.713Z,66.53
2019-02-20T03:05:50.734Z,66.53
2019-02-20T03:06:51.013Z,66.63
2019-02-20T03:07:50.779Z,66.44
2019-02-20T03:08:50.791Z,66.44
2019-02-20T03:09:51.096Z,66.34
2019-02-20T03:10:50.831Z,66.44
2019-02-20T03:11:51.111Z,66.44
2019-02-20T03:12:51.131Z,66.34
2019-02-20T03:13:51.156Z,66.24
2019-02-20T03:14:51.208Z,66.15
2019-02-20T03:15:51.197Z,66.24
2019-02-20T03:16:50.951Z,66.34
2019-02-20T03:17:50.968Z,66.24
2019-02-20T03:18:51.250Z,66.15
2019-02-20T03:19:51.008Z,66.24
2019-02-20T03:20:51.027Z,66.15
2019-02-20T03:21:51.045Z,66.44
2019-02-20T03:22:51.325Z,66.82
2019-02-20T03:23:51.089Z,66.44
2019-02-20T03:24:51.106Z,66.24
2019-02-20T03:25:51.384Z,67.1
2019-02-20T03:26:51.144Z,66.82
2019-02-20T03:27:51.169Z,66.82
2019-02-20T03:28:51.183Z,66.91
2019-02-20T03:29:51.462Z,66.91
2019-02-20T03:30:51.224Z,67
2019-02-20T03:31:51.262Z,66.82
2019-02-20T03:32:51.540Z,66.91
2019-02-20T03:33:51.546Z,66.82
2019-02-20T03:34:51.300Z,66.91
2019-02-20T03:35:51.317Z,66.78
2019-02-20T03:36:51.342Z,66.82
2019-02-20T03:37:51.615Z,67
2019-02-20T03:38:51.481Z,66.78
2019-02-20T03:39:51.411Z,66.82
2019-02-20T03:40:51.416Z,66.82
2019-02-20T03:41:51.705Z,66.72
2019-02-20T03:42:51.745Z,66.78
2019-02-20T03:43:51.733Z,66.5
2019-02-20T03:44:51.501Z,66.59
2019-02-20T03:45:51.516Z,66.69
2019-02-20T03:46:51.537Z,66.69
2019-02-20T03:47:51.559Z,66.78
2019-02-20T03:48:51.837Z,66.5
2019-02-20T03:49:51.858Z,66.59
2019-02-20T03:50:51.616Z,66.59
2019-02-20T03:51:51.631Z,66.59
2019-02-20T03:52:51.691Z,66.69
2019-02-20T03:53:54.288Z,66.59
2019-02-20T03:54:51.968Z,66.5
2019-02-20T03:55:51.962Z,66.78
2019-02-20T03:56:51.991Z,66.5
2019-02-20T03:57:52.006Z,66.78
2019-02-20T03:58:51.917Z,66.5
2019-02-20T03:59:51.785Z,66.59
2019-02-20T04:00:51.801Z,66.59
2019-02-20T04:01:51.830Z,66.97
2019-02-20T04:02:52.101Z,67.07
2019-02-20T04:03:52.130Z,67.07
2019-02-20T04:04:52.140Z,66.97
2019-02-20T04:05:52.159Z,67.07
2019-02-20T04:06:52.188Z,67.07
2019-02-20T04:07:51.939Z,66.69
2019-02-20T04:08:52.218Z,66.97
2019-02-20T04:09:52.233Z,66.97
2019-02-20T04:10:52.002Z,66.97
2019-02-20T04:11:52.018Z,66.97
2019-02-20T04:12:52.036Z,66.97
2019-02-20T04:13:52.055Z,66.88
2019-02-20T04:14:52.074Z,66.88
2019-02-20T04:15:52.353Z,67.16
2019-02-20T04:16:52.111Z,67.16
2019-02-20T04:17:52.137Z,67.07
2019-02-20T04:18:52.408Z,67.16
2019-02-20T04:19:52.175Z,66.88
2019-02-20T04:20:52.198Z,67.16
2019-02-20T04:21:52.211Z,67.16
2019-02-20T04:22:52.498Z,67.07
2019-02-20T04:24:01.550Z,67.16
2019-02-20T04:24:52.266Z,67.16
2019-02-20T04:25:52.335Z,67.16
2019-02-20T04:26:52.307Z,67.16
2019-02-20T04:27:52.585Z,67.45
2019-02-20T04:28:52.346Z,67.07
2019-02-20T04:29:52.360Z,67.26
2019-02-20T04:30:52.390Z,67.16
2019-02-20T04:31:52.402Z,66.97
2019-02-20T04:32:52.676Z,67.16
2019-02-20T04:33:52.702Z,66.88
2019-02-20T04:34:52.716Z,67.16
2019-02-20T04:35:52.740Z,67.16
2019-02-20T04:36:52.761Z,67.16
2019-02-20T04:37:52.775Z,67.07
2019-02-20T04:38:52.536Z,67.26
2019-02-20T04:39:52.555Z,67.35
2019-02-20T04:40:52.572Z,66.69
2019-02-20T04:41:52.591Z,66.78
2019-02-20T04:42:52.615Z,66.69
2019-02-20T04:43:52.904Z,66.69
2019-02-20T04:44:52.924Z,66.69
2019-02-20T04:45:52.671Z,66.78
2019-02-20T04:46:52.946Z,66.78
2019-02-20T04:47:52.967Z,67.16
2019-02-20T04:48:52.987Z,66.78
2019-02-20T04:49:52.744Z,66.69
2019-02-20T04:50:52.780Z,67.16
2019-02-20T04:51:52.783Z,66.88
2019-02-20T04:52:52.803Z,66.78
2019-02-20T04:53:53.080Z,67.16
2019-02-20T04:54:53.097Z,66.78
2019-02-20T04:55:53.150Z,66.78
2019-02-20T04:56:52.879Z,66.69
2019-02-20T04:57:52.901Z,66.69
2019-02-20T04:58:53.177Z,66.69
2019-02-20T04:59:53.200Z,66.69
2019-02-20T05:00:53.249Z,66.69
2019-02-20T05:01:53.237Z,66.97
2019-02-20T05:02:53.257Z,66.97
2019-02-20T05:03:53.013Z,66.69
2019-02-20T05:04:53.051Z,66.69
2019-02-20T05:05:53.308Z,66.78
2019-02-20T05:06:53.074Z,66.97
2019-02-20T05:07:53.103Z,67.35
2019-02-20T05:08:53.368Z,66.97
2019-02-20T05:09:53.137Z,67.07
2019-02-20T05:10:53.406Z,67.16
2019-02-20T05:11:53.169Z,67.16
2019-02-20T05:12:53.190Z,67.22
2019-02-20T05:13:53.208Z,66.94
2019-02-20T05:14:53.483Z,67.26
2019-02-20T05:15:53.245Z,67.35
2019-02-20T05:16:53.279Z,67.22
2019-02-20T05:17:53.280Z,67.26
2019-02-20T05:18:53.303Z,67.35
2019-02-20T05:19:53.578Z,67.16
2019-02-20T05:20:53.338Z,67.26
2019-02-20T05:21:53.357Z,67.16
2019-02-20T05:22:53.376Z,67.26
2019-02-20T05:23:53.652Z,67.26
2019-02-20T05:24:53.418Z,67.32
2019-02-20T05:25:53.437Z,67.13
2019-02-20T05:26:53.708Z,67.64
2019-02-20T05:27:53.729Z,67.41
2019-02-20T05:28:53.487Z,67.07
2019-02-20T05:29:53.510Z,67.32
2019-02-20T05:30:53.529Z,67.41
2019-02-20T05:31:53.808Z,67.45
2019-02-20T05:32:53.822Z,67.03
2019-02-20T05:33:53.586Z,67.64
2019-02-20T05:34:53.604Z,67.26
2019-02-20T05:35:53.622Z,67.26
2019-02-20T05:36:53.901Z,67.22
2019-02-20T05:37:53.664Z,67.41
2019-02-20T05:38:53.680Z,67.26
2019-02-20T05:39:53.956Z,67.22
2019-02-20T05:40:53.976Z,67.22
2019-02-20T05:41:53.736Z,67.61
2019-02-20T05:42:53.757Z,67.32
2019-02-20T05:43:54.034Z,67.32
2019-02-20T05:44:54.099Z,67.03
2019-02-20T05:45:53.823Z,67.03
2019-02-20T05:46:53.835Z,67.41
2019-02-20T05:47:54.105Z,67.22
2019-02-20T05:48:54.129Z,67.13
2019-02-20T05:49:54.145Z,67.41
2019-02-20T05:50:54.174Z,67.41
2019-02-20T05:51:53.927Z,66.94
2019-02-20T05:52:53.948Z,67.03
2019-02-20T05:53:53.971Z,67.22
2019-02-20T05:54:53.981Z,67.13
2019-02-20T05:55:54.263Z,67.03
2019-02-20T05:56:54.020Z,67.41
2019-02-20T05:57:54.039Z,67.51
2019-02-20T05:58:54.060Z,67.41
2019-02-20T05:59:54.343Z,67.41
2019-02-20T06:00:54.099Z,67.41
2019-02-20T06:01:54.118Z,67.51
2019-02-20T06:02:54.396Z,67.61
2019-02-20T06:03:54.417Z,67.61
2019-02-20T06:04:54.172Z,67.61
2019-02-20T06:05:54.452Z,67.61
2019-02-20T06:06:54.472Z,67.61
2019-02-20T06:07:54.229Z,67.32
2019-02-20T06:08:54.505Z,67.61
2019-02-20T06:09:54.266Z,67.41
2019-02-20T06:10:54.293Z,67.41
2019-02-20T06:11:54.614Z,67.61
2019-02-20T06:12:54.322Z,67.61
2019-02-20T06:13:54.349Z,67.41
2019-02-20T06:14:54.365Z,67.61
2019-02-20T06:15:54.378Z,67.61
2019-02-20T06:16:54.397Z,67.41
2019-02-20T06:17:54.424Z,67.61
2019-02-20T06:18:54.440Z,67.61
2019-02-20T06:19:54.720Z,67.61
2019-02-20T06:20:54.737Z,67.41
2019-02-20T06:21:54.498Z,67.41
2019-02-20T06:22:54.510Z,67.51
2019-02-20T06:23:54.530Z,67.61
2019-02-20T06:24:54.820Z,67.41
2019-02-20T06:25:54.576Z,67.61
2019-02-20T06:26:54.862Z,67.32
2019-02-20T06:27:54.873Z,67.61
2019-02-20T06:28:54.626Z,67.51
2019-02-20T06:29:54.900Z,67.61
2019-02-20T06:30:54.662Z,67.51
2019-02-20T06:31:54.681Z,67.61
2019-02-20T06:32:54.975Z,67.61
2019-02-20T06:33:54.716Z,67.41
2019-02-20T06:34:54.738Z,67.61
2019-02-20T06:35:54.757Z,67.61
2019-02-20T06:36:54.776Z,67.8
2019-02-20T06:37:54.798Z,68.18
2019-02-20T06:38:54.817Z,67.7
2019-02-20T06:39:55.091Z,67.7
2019-02-20T06:40:55.124Z,67.8
2019-02-20T06:41:54.872Z,67.7
2019-02-20T06:42:55.146Z,67.8
2019-02-20T06:43:54.906Z,67.8
2019-02-20T06:44:55.181Z,67.89
2019-02-20T06:45:54.944Z,67.8
2019-02-20T06:46:55.222Z,67.99
2019-02-20T06:47:55.239Z,67.8
2019-02-20T06:48:55.002Z,67.8
2019-02-20T06:49:55.300Z,67.8
2019-02-20T06:50:55.037Z,67.61
2019-02-20T06:51:55.316Z,67.41
2019-02-20T06:52:55.080Z,67.8
2019-02-20T06:53:55.353Z,67.7
2019-02-20T06:54:56.694Z,67.99
2019-02-20T06:55:55.133Z,67.7
2019-02-20T06:56:55.151Z,67.89
2019-02-20T06:57:55.170Z,67.7
2019-02-20T06:58:55.446Z,67.7
2019-02-20T06:59:55.209Z,67.61
2019-02-20T07:00:55.484Z,67.7
2019-02-20T07:01:55.247Z,67.7
2019-02-20T07:02:55.268Z,67.51
2019-02-20T07:03:55.541Z,67.51
2019-02-20T07:04:55.577Z,67.61
2019-02-20T07:05:55.649Z,67.41
2019-02-20T07:06:55.343Z,67.61
2019-02-20T07:07:55.628Z,67.61
2019-02-20T07:08:55.385Z,67.61
2019-02-20T07:09:55.662Z,67.51
2019-02-20T07:10:55.420Z,67.61
2019-02-20T07:11:55.433Z,67.61
2019-02-20T07:12:55.712Z,67.61
2019-02-20T07:13:55.472Z,67.8
2019-02-20T07:14:55.750Z,67.61
2019-02-20T07:15:55.508Z,67.61
2019-02-20T07:16:55.527Z,67.61
2019-02-20T07:17:55.803Z,67.41
2019-02-20T07:18:55.565Z,67.41
2019-02-20T07:19:55.584Z,67.32
2019-02-20T07:20:55.863Z,67.61
2019-02-20T07:21:55.622Z,67.61
2019-02-20T07:22:55.899Z,67.61
2019-02-20T07:23:55.664Z,67.61
2019-02-20T07:25:05.226Z,67.51
2019-02-20T07:25:55.964Z,67.61
2019-02-20T07:26:55.714Z,67.61
2019-02-20T07:27:55.992Z,67.61
2019-02-20T07:28:55.756Z,67.61
2019-02-20T07:29:56.052Z,67.61
2019-02-20T07:30:56.053Z,67.41
2019-02-20T07:31:55.811Z,67.13
2019-02-20T07:32:56.092Z,67.03
2019-02-20T07:33:55.851Z,67.22
2019-02-20T07:34:55.869Z,67.03
2019-02-20T07:35:56.157Z,67.22
2019-02-20T07:36:55.914Z,67.22
2019-02-20T07:37:56.191Z,67.22
2019-02-20T07:38:55.946Z,67.32
2019-02-20T07:39:57.337Z,67.22
2019-02-20T07:40:56.240Z,67.22
2019-02-20T07:41:56.001Z,67.22
2019-02-20T07:42:56.020Z,67.41
2019-02-20T07:43:56.295Z,67.22
2019-02-20T07:44:56.314Z,67.13
2019-02-20T07:45:56.336Z,67.13
2019-02-20T07:46:56.091Z,67.22
2019-02-20T07:47:56.369Z,67.32
2019-02-20T07:48:56.395Z,67.13
2019-02-20T07:49:56.161Z,67.03
2019-02-20T07:50:56.431Z,67.03
2019-02-20T07:51:56.202Z,66.85
2019-02-20T07:52:56.519Z,66.66
2019-02-20T07:53:56.501Z,66.85
2019-02-20T07:54:56.254Z,66.75
2019-02-20T07:55:56.264Z,66.75
2019-02-20T07:56:56.544Z,66.75
2019-02-20T07:57:56.300Z,66.94
2019-02-20T07:58:56.319Z,66.85
2019-02-20T07:59:56.596Z,66.75
2019-02-20T08:00:56.359Z,67.03
2019-02-20T08:01:56.374Z,67.13
2019-02-20T08:02:56.394Z,66.94
2019-02-20T08:03:56.677Z,66.94
2019-02-20T08:04:56.432Z,67.22
2019-02-20T08:05:56.709Z,67.41
2019-02-20T08:06:56.480Z,67.13
2019-02-20T08:07:56.490Z,67.03
2019-02-20T08:08:56.775Z,67.03
2019-02-20T08:09:56.526Z,67.03
2019-02-20T08:10:56.547Z,66.94
2019-02-20T08:11:56.571Z,67.13
2019-02-20T08:12:56.843Z,66.85
2019-02-20T08:13:56.859Z,67.13
2019-02-20T08:14:56.623Z,66.94
2019-02-20T08:15:56.914Z,66.85
2019-02-20T08:16:56.918Z,67.03
2019-02-20T08:17:56.943Z,67.13
2019-02-20T08:18:56.697Z,66.75
2019-02-20T08:19:56.718Z,66.75
2019-02-20T08:20:56.996Z,67.03
2019-02-20T08:21:57.013Z,66.85
2019-02-20T08:22:56.780Z,67.03
2019-02-20T08:23:56.799Z,66.94
2019-02-20T08:24:57.079Z,67.03
2019-02-20T08:25:56.832Z,67.03
2019-02-20T08:26:57.110Z,66.94
2019-02-20T08:27:56.870Z,66.94
2019-02-20T08:28:56.891Z,66.75
2019-02-20T08:29:57.174Z,66.85
2019-02-20T08:30:56.932Z,66.46
2019-02-20T08:31:57.205Z,66.94
2019-02-20T08:32:56.967Z,66.46
2019-02-20T08:33:56.986Z,66.75
2019-02-20T08:34:57.005Z,66.66
2019-02-20T08:35:57.282Z,66.66
2019-02-20T08:36:57.313Z,66.46
2019-02-20T08:37:57.063Z,66.46
2019-02-20T08:38:57.343Z,66.66
2019-02-20T08:39:57.105Z,66.46
2019-02-20T08:40:57.117Z,66.46
2019-02-20T08:41:57.401Z,66.46
2019-02-20T08:42:57.163Z,66.56
2019-02-20T08:43:57.443Z,66.75
2019-02-20T08:44:57.193Z,66.56
2019-02-20T08:45:57.228Z,66.66
2019-02-20T08:46:57.233Z,66.85
2019-02-20T08:47:57.253Z,66.75
2019-02-20T08:48:57.271Z,66.75
2019-02-20T08:49:57.547Z,66.78
2019-02-20T08:50:57.572Z,66.75
2019-02-20T08:51:57.639Z,66.59
2019-02-20T08:52:57.345Z,66.94
2019-02-20T08:53:57.629Z,67.03
2019-02-20T08:54:57.393Z,67.22
2019-02-20T08:55:57.662Z,65.99
2019-02-20T08:56:57.719Z,66.11
2019-02-20T08:57:57.442Z,66.11
2019-02-20T08:58:57.726Z,66.08
2019-02-20T08:59:57.511Z,66.5
2019-02-20T09:00:57.500Z,66.27
2019-02-20T09:01:57.779Z,66.31
2019-02-20T09:02:57.540Z,66.4
2019-02-20T09:03:57.828Z,66.31
2019-02-20T09:04:57.834Z,66.59
2019-02-20T09:05:57.598Z,66.69
2019-02-20T09:06:57.715Z,66.5
2019-02-20T09:07:57.634Z,66.5
2019-02-20T09:08:57.659Z,66.69
2019-02-20T09:09:57.672Z,66.69
2019-02-20T09:10:57.700Z,66.59
2019-02-20T09:11:57.713Z,66.21
2019-02-20T09:12:57.730Z,66.02
2019-02-20T09:13:57.757Z,66.31
2019-02-20T09:14:57.770Z,66.31
2019-02-20T09:15:57.788Z,65.83
2019-02-20T09:16:57.807Z,66.21
2019-02-20T09:17:57.834Z,65.83
2019-02-20T09:18:58.108Z,66.31
2019-02-20T09:19:58.123Z,66.31
2019-02-20T09:20:57.886Z,66.02
2019-02-20T09:21:58.165Z,66.5
2019-02-20T09:22:58.191Z,66.11
2019-02-20T09:23:57.943Z,66.31
2019-02-20T09:24:57.964Z,66.31
2019-02-20T09:25:57.989Z,66.02
2019-02-20T09:26:58.287Z,65.92
2019-02-20T09:27:58.291Z,65.55
2019-02-20T09:28:59.375Z,66.02
2019-02-20T09:29:58.318Z,65.92
2019-02-20T09:30:58.085Z,66.02
2019-02-20T09:31:58.099Z,65.64
2019-02-20T09:32:58.119Z,65.64
2019-02-20T09:33:59.172Z,65.64
2019-02-20T09:34:58.414Z,65.36
2019-02-20T09:35:58.178Z,65.45
2019-02-20T09:36:58.196Z,65.45
2019-02-20T09:37:58.217Z,65.55
2019-02-20T09:38:58.257Z,65.83
2019-02-20T09:39:58.522Z,65.73
2019-02-20T09:40:58.286Z,65.64
2019-02-20T09:41:58.294Z,65.83
2019-02-20T09:42:58.314Z,65.45
2019-02-20T09:43:58.589Z,65.55
2019-02-20T09:44:58.389Z,65.55
2019-02-20T09:45:58.371Z,65.55
2019-02-20T09:46:58.389Z,65.64
2019-02-20T09:47:58.416Z,65.55
2019-02-20T09:48:58.442Z,65.36
2019-02-20T09:49:58.446Z,65.55
2019-02-20T09:50:58.467Z,65.64
2019-02-20T09:51:58.749Z,65.16
2019-02-20T09:52:58.508Z,65.55
2019-02-20T09:53:58.529Z,65.58
2019-02-20T09:54:58.807Z,65.67
2019-02-20T09:55:58.574Z,65.45
2019-02-20T09:56:58.583Z,65.67
2019-02-20T09:57:58.608Z,65.45
2019-02-20T09:58:58.883Z,65.67
2019-02-20T09:59:58.643Z,65.67
2019-02-20T10:00:58.667Z,65.29
2019-02-20T10:01:58.946Z,65.29
2019-02-20T10:02:58.703Z,65.29
2019-02-20T10:03:59.584Z,65.29
2019-02-20T10:04:58.770Z,65
2019-02-20T10:05:59.021Z,65.2
2019-02-20T10:06:58.782Z,65.39
2019-02-20T10:07:59.060Z,65.48
2019-02-20T10:08:58.817Z,65.1
2019-02-20T10:09:58.837Z,65
2019-02-20T10:10:59.129Z,65
2019-02-20T10:11:58.880Z,65.2
2019-02-20T10:12:59.159Z,65.1
2019-02-20T10:13:59.175Z,65
2019-02-20T10:14:58.936Z,65
2019-02-20T10:15:59.227Z,64.72
2019-02-20T10:16:58.975Z,65
2019-02-20T10:17:59.016Z,64.81
2019-02-20T10:18:59.272Z,64.72
2019-02-20T10:19:59.035Z,64.53
2019-02-20T10:20:59.315Z,64.62
2019-02-20T10:21:59.334Z,64.43
2019-02-20T10:22:59.095Z,64.43
2019-02-20T10:23:59.120Z,64.53
2019-02-20T10:24:59.395Z,64.24
2019-02-20T10:26:03.307Z,64.24
2019-02-20T10:27:03.288Z,64.72
2019-02-20T10:27:59.200Z,64.62
2019-02-20T10:28:59.211Z,64.34
2019-02-20T10:29:59.231Z,64.62
2019-02-20T10:30:59.510Z,64.62
2019-02-20T10:31:59.554Z,64.53
2019-02-20T10:32:59.551Z,64.62
2019-02-20T10:33:59.322Z,64.62
2019-02-20T10:34:59.330Z,64.62
2019-02-20T10:35:59.363Z,64.43
2019-02-20T10:36:59.627Z,64.62
2019-02-20T10:37:59.391Z,64.62
2019-02-20T10:38:59.735Z,64.62
2019-02-20T10:39:59.447Z,64.62
2019-02-20T10:40:59.705Z,64.53
2019-02-20T10:41:59.471Z,64.34
2019-02-20T10:42:59.487Z,64.53
2019-02-20T10:43:59.513Z,64.34
2019-02-20T10:44:59.532Z,64.34
2019-02-20T10:45:59.805Z,64.62
2019-02-20T10:46:59.835Z,64.62
2019-02-20T10:47:59.854Z,64.47
2019-02-20T10:48:59.865Z,64.53
2019-02-20T10:49:59.627Z,64.62
2019-02-20T10:50:59.905Z,64.43
2019-02-20T10:51:59.676Z,64.43
2019-02-20T10:52:59.687Z,64.62
2019-02-20T10:53:59.715Z,64.47
2019-02-20T10:55:00.286Z,64.65
2019-02-20T10:56:00.007Z,64.65
2019-02-20T10:56:59.768Z,64.62
2019-02-20T10:57:59.785Z,64.56
2019-02-20T10:59:00.070Z,64.37
2019-02-20T10:59:59.827Z,64.65
2019-02-20T11:01:00.102Z,64.65
2019-02-20T11:02:00.130Z,64.65
2019-02-20T11:02:59.885Z,64.65
2019-02-20T11:04:00.162Z,64.56
2019-02-20T11:04:59.925Z,64.65
2019-02-20T11:05:59.945Z,64.65
2019-02-20T11:07:00.226Z,64.65
2019-02-20T11:07:59.984Z,64.47
2019-02-20T11:09:00.264Z,64.75
2019-02-20T11:10:00.281Z,64.47
2019-02-20T11:11:00.046Z,64.56
2019-02-20T11:12:00.062Z,64.18
2019-02-20T11:13:00.350Z,64.56
2019-02-20T11:14:00.362Z,64.18
2019-02-20T11:15:00.392Z,64.56
2019-02-20T11:16:01.113Z,64.28
2019-02-20T11:17:00.170Z,64.56
2019-02-20T11:18:00.442Z,64.28
2019-02-20T11:19:00.510Z,64.56
2019-02-20T11:20:00.266Z,64.47
2019-02-20T11:21:00.242Z,64.65
2019-02-20T11:22:00.263Z,64.47
2019-02-20T11:23:00.543Z,64.56
2019-02-20T11:24:01.201Z,64.28
2019-02-20T11:25:00.375Z,64.56
2019-02-20T11:26:00.344Z,64.65
2019-02-20T11:27:00.364Z,64.65
2019-02-20T11:28:00.643Z,64.65
2019-02-20T11:29:00.403Z,64.85
2019-02-20T11:30:00.438Z,64.56
2019-02-20T11:31:00.443Z,64.28
2019-02-20T11:32:00.466Z,64.47
2019-02-20T11:33:00.741Z,64.18
2019-02-20T11:34:01.835Z,64.18
2019-02-20T11:35:00.784Z,64.56
2019-02-20T11:36:00.545Z,63.99
2019-02-20T11:37:00.563Z,64.18
2019-02-20T11:38:00.845Z,64.18
2019-02-20T11:39:00.604Z,64.18
2019-02-20T11:40:00.629Z,64.18
2019-02-20T11:41:00.646Z,64.18
2019-02-20T11:42:00.926Z,64.09
2019-02-20T11:43:00.946Z,64.47
2019-02-20T11:44:00.970Z,64.28
2019-02-20T11:45:00.985Z,64.37
2019-02-20T11:46:00.748Z,64.18
2019-02-20T11:47:00.765Z,64.28
2019-02-20T11:48:00.788Z,64.18
2019-02-20T11:49:01.071Z,64.28
2019-02-20T11:50:00.836Z,64.28
2019-02-20T11:51:00.847Z,64.09
2019-02-20T11:52:00.869Z,64.18
2019-02-20T11:53:00.886Z,64.37
2019-02-20T11:54:00.912Z,64.37
2019-02-20T11:55:01.186Z,64.28
2019-02-20T11:56:00.951Z,64.18
2019-02-20T11:57:01.228Z,64.47
2019-02-20T11:58:03.493Z,63.89
2019-02-20T11:59:01.270Z,63.89
2019-02-20T12:00:01.285Z,64.28
2019-02-20T12:01:01.318Z,63.8
2019-02-20T12:02:01.327Z,63.8
2019-02-20T12:03:01.345Z,64.09
2019-02-20T12:04:01.366Z,63.99
2019-02-20T12:05:01.128Z,63.89
2019-02-20T12:06:01.406Z,63.99
2019-02-20T12:07:01.428Z,63.8
2019-02-20T12:08:01.194Z,63.8
2019-02-20T12:09:01.470Z,63.7
2019-02-20T12:10:01.487Z,63.89
2019-02-20T12:11:01.507Z,63.8
2019-02-20T12:12:01.529Z,63.8
2019-02-20T12:13:01.551Z,63.89
2019-02-20T12:14:01.568Z,63.8
2019-02-20T12:15:01.588Z,64.02
2019-02-20T12:16:01.353Z,63.64
2019-02-20T12:17:01.372Z,64.02
2019-02-20T12:18:01.391Z,63.83
2019-02-20T12:19:01.667Z,63.83
2019-02-20T12:20:01.431Z,63.73
2019-02-20T12:21:01.452Z,63.54
2019-02-20T12:22:01.473Z,63.83
2019-02-20T12:23:01.753Z,63.54
2019-02-20T12:24:01.771Z,63.64
2019-02-20T12:25:01.822Z,63.92
2019-02-20T12:26:01.811Z,63.92
2019-02-20T12:27:01.831Z,63.64
2019-02-20T12:28:01.854Z,63.7
2019-02-20T12:29:01.874Z,63.83
2019-02-20T12:30:01.898Z,63.92
2019-02-20T12:31:01.656Z,63.92
2019-02-20T12:32:01.673Z,63.83
2019-02-20T12:33:01.705Z,63.73
2019-02-20T12:34:03.760Z,63.45
2019-02-20T12:35:01.737Z,63.54
2019-02-20T12:36:02.013Z,63.73
2019-02-20T12:37:01.777Z,63.54
2019-02-20T12:38:02.555Z,63.73
2019-02-20T12:39:01.821Z,63.54
2019-02-20T12:40:01.840Z,63.35
2019-02-20T12:41:01.857Z,63.64
2019-02-20T12:42:01.882Z,63.54
2019-02-20T12:43:02.170Z,63.92
2019-02-20T12:44:01.918Z,63.35
2019-02-20T12:45:01.941Z,63.26
2019-02-20T12:46:01.961Z,63.54
2019-02-20T12:47:02.272Z,63.45
2019-02-20T12:48:02.260Z,63.45
2019-02-20T12:49:02.021Z,63.45
2019-02-20T12:50:02.041Z,63.45
2019-02-20T12:51:02.060Z,63.45
2019-02-20T12:52:02.626Z,63.45
2019-02-20T12:53:02.361Z,63.54
2019-02-20T12:54:02.124Z,63.45
2019-02-20T12:55:02.141Z,63.54
2019-02-20T12:56:09.773Z,63.35